Time;durP1;ratioP1;P1;durP2;ratioP2;P2;SDS_P1;SDS_P2;PMS_P1;PMS_P2;Temp;Humidity;BMP_temperature;BMP_pressure;BME280_temperature;BME280_humidity;BME280_pressure;Samples;Min_cycle;Max_cycle;Signal;HPM_P1;HPM_P2
2021/12/26 00:00:21;;;;;;;4.90;2.42;;;;;;;-3.37;64.92;100784.69;4967092;28;20034;-69
2021/12/26 00:02:47;;;;;;;3.63;2.65;;;;;;;-3.37;64.50;100785.53;4957139;28;20113;-69
2021/12/26 00:05:15;;;;;;;3.78;2.50;;;;;;;-3.40;65.33;100777.72;4944039;28;20046;-68
2021/12/26 00:07:41;;;;;;;3.00;1.95;;;;;;;-3.39;64.54;100782.06;4978375;28;20031;-68
2021/12/26 00:10:09;;;;;;;3.40;2.35;;;;;;;-3.36;64.50;100781.28;4941549;28;20177;-69
2021/12/26 00:12:35;;;;;;;3.78;2.25;;;;;;;-3.38;64.29;100780.34;4945577;28;20098;-68
2021/12/26 00:15:03;;;;;;;3.42;2.28;;;;;;;-3.40;65.15;100779.44;4950489;28;20030;-68
2021/12/26 00:17:28;;;;;;;3.05;2.50;;;;;;;-3.39;65.23;100776.03;4977632;28;20064;-67
2021/12/26 00:19:54;;;;;;;3.67;2.85;;;;;;;-3.43;65.58;100776.69;4958688;28;20030;-69
2021/12/26 00:22:19;;;;;;;3.30;1.98;;;;;;;-3.45;65.53;100774.06;4941231;28;20621;-69
2021/12/26 00:24:47;;;;;;;3.50;2.08;;;;;;;-3.44;65.02;100783.53;4963396;28;20094;-68
2021/12/26 00:27:16;;;;;;;2.78;1.85;;;;;;;-3.46;66.07;100780.03;4973985;28;20030;-70
2021/12/26 00:29:41;;;;;;;4.00;2.10;;;;;;;-3.46;65.85;100774.91;4963337;28;20038;-69
2021/12/26 00:32:07;;;;;;;7.47;3.75;;;;;;;-3.47;65.62;100769.72;4970544;28;20022;-69
2021/12/26 00:34:34;;;;;;;3.55;2.60;;;;;;;-3.50;65.86;100775.56;4966763;28;20072;-69
2021/12/26 00:36:59;;;;;;;2.58;1.83;;;;;;;-3.50;65.41;100761.06;4970026;28;20045;-67
2021/12/26 00:39:27;;;;;;;4.82;2.83;;;;;;;-3.55;65.93;100765.13;4932329;28;20121;-69
2021/12/26 00:41:53;;;;;;;2.80;2.10;;;;;;;-3.54;65.66;100764.31;4971010;28;20118;-69
2021/12/26 00:44:19;;;;;;;3.33;2.03;;;;;;;-3.54;65.56;100759.19;4960554;28;20055;-67
2021/12/26 00:46:44;;;;;;;4.05;2.70;;;;;;;-3.51;65.64;100756.75;4964326;28;20066;-72
2021/12/26 00:49:10;;;;;;;2.53;2.13;;;;;;;-3.56;65.59;100750.56;4981403;28;20077;-69
2021/12/26 00:51:35;;;;;;;6.05;2.40;;;;;;;-3.57;65.76;100748.81;4979159;28;20039;-67
2021/12/26 00:54:01;;;;;;;4.15;2.40;;;;;;;-3.55;65.83;100754.88;4953938;28;20035;-68
2021/12/26 00:56:27;;;;;;;5.38;2.85;;;;;;;-3.54;65.92;100748.94;4926906;28;20049;-70
2021/12/26 00:58:53;;;;;;;4.45;2.38;;;;;;;-3.56;65.88;100750.56;4962608;28;20581;-68
2021/12/26 01:01:20;;;;;;;12.07;2.97;;;;;;;-3.55;65.77;100747.19;4955583;28;20042;-69
2021/12/26 01:03:48;;;;;;;4.13;2.22;;;;;;;-3.56;66.60;100753.13;4954510;28;20125;-69
2021/12/26 01:06:14;;;;;;;4.40;3.42;;;;;;;-3.55;66.54;100756.56;4946925;28;20125;-69
2021/12/26 01:08:42;;;;;;;3.58;2.33;;;;;;;-3.58;66.60;100751.28;4963259;28;20036;-68
2021/12/26 01:11:23;;;;;;;8.52;2.72;;;;;;;-3.58;66.67;100754.72;4970672;28;20121;-68
2021/12/26 01:13:51;;;;;;;3.75;2.63;;;;;;;-3.56;66.34;100758.25;4958782;28;20039;-69
2021/12/26 01:16:17;;;;;;;4.68;2.03;;;;;;;-3.55;66.58;100760.00;4964288;28;20125;-69
2021/12/26 01:18:50;;;;;;;3.63;2.45;;;;;;;-3.52;67.49;100760.13;4950478;28;20415;-69
2021/12/26 01:21:17;;;;;;;4.13;2.40;;;;;;;-3.47;66.27;100762.91;4970225;28;20522;-69
2021/12/26 01:23:50;;;;;;;3.72;2.50;;;;;;;-3.50;67.08;100773.00;4967489;28;20042;-69
2021/12/26 01:26:16;;;;;;;3.95;2.08;;;;;;;-3.46;65.94;100763.75;4963973;28;20070;-69
2021/12/26 01:28:41;;;;;;;6.05;2.80;;;;;;;-3.45;66.42;100773.22;4947513;28;20031;-68
2021/12/26 01:31:07;;;;;;;8.00;3.42;;;;;;;-3.44;67.08;100769.84;4968721;28;20096;-68
2021/12/26 01:33:33;;;;;;;4.22;3.10;;;;;;;-3.41;67.76;100765.72;4964686;28;20034;-69
2021/12/26 01:35:59;;;;;;;3.40;2.72;;;;;;;-3.41;67.32;100772.53;4950770;28;20027;-69
2021/12/26 01:38:25;;;;;;;6.15;3.03;;;;;;;-3.40;66.19;100759.78;4956749;28;20045;-68
2021/12/26 01:40:54;;;;;;;3.15;2.33;;;;;;;-3.38;66.55;100773.53;4967290;28;20039;-68
2021/12/26 01:43:27;;;;;;;5.53;3.08;;;;;;;-3.41;66.70;100763.16;4970223;28;20034;-70
2021/12/26 01:45:54;;;;;;;3.33;2.67;;;;;;;-3.38;66.57;100754.72;4969554;28;20050;-69
2021/12/26 01:48:21;;;;;;;4.75;2.45;;;;;;;-3.40;66.54;100758.94;4969904;28;20122;-69
2021/12/26 01:50:49;;;;;;;3.78;2.25;;;;;;;-3.42;66.88;100751.19;4971625;28;20031;-69
2021/12/26 01:53:15;;;;;;;4.20;2.53;;;;;;;-3.40;65.78;100752.09;4969027;28;20041;-70
2021/12/26 01:55:44;;;;;;;3.28;2.30;;;;;;;-3.38;66.40;100754.72;4951446;28;20112;-69
2021/12/26 01:58:30;;;;;;;4.55;2.60;;;;;;;-3.41;66.60;100752.03;4970437;28;20031;-68
2021/12/26 02:01:08;;;;;;;2.42;1.80;;;;;;;-3.38;65.69;100752.16;4972708;28;20030;-69
2021/12/26 02:03:35;;;;;;;6.18;2.67;;;;;;;-3.41;66.68;100741.78;4961105;28;20058;-68
2021/12/26 02:06:03;;;;;;;4.22;2.92;;;;;;;-3.40;65.47;100738.44;4952874;28;20038;-68
2021/12/26 02:08:28;;;;;;;4.57;2.53;;;;;;;-3.39;66.72;100735.03;4960881;28;20038;-69
2021/12/26 02:10:54;;;;;;;3.83;2.17;;;;;;;-3.42;66.75;100740.94;4946078;28;20113;-69
2021/12/26 02:13:19;;;;;;;4.57;2.45;;;;;;;-3.43;66.23;100738.25;4948418;28;20045;-69
2021/12/26 02:15:45;;;;;;;3.50;2.33;;;;;;;-3.42;67.26;100742.59;4955647;28;20038;-68
2021/12/26 02:18:12;;;;;;;3.53;2.03;;;;;;;-3.39;66.74;100743.63;4947589;28;20121;-69
2021/12/26 02:23:18;;;;;;;5.07;2.40;;;;;;;-3.41;67.09;100739.22;4982526;28;20030;-69
2021/12/26 02:28:13;;;;;;;6.65;2.85;;;;;;;-3.41;66.76;100731.53;4970112;28;20039;-69
2021/12/26 02:30:39;;;;;;;3.25;2.28;;;;;;;-3.43;66.86;100738.25;4954324;28;20034;-68
2021/12/26 02:33:08;;;;;;;3.78;2.55;;;;;;;-3.44;66.28;100728.84;4950515;28;20042;-70
2021/12/26 02:35:34;;;;;;;4.20;2.75;;;;;;;-3.44;66.88;100733.97;4968449;28;20423;-69
2021/12/26 02:38:00;;;;;;;4.53;2.88;;;;;;;-3.47;66.00;100726.16;4970790;28;20065;-69
2021/12/26 02:40:25;;;;;;;5.32;2.72;;;;;;;-3.46;66.97;100733.91;4952641;28;20045;-70
2021/12/26 02:42:51;;;;;;;3.40;2.55;;;;;;;-3.47;66.64;100736.41;4965036;28;20030;-69
2021/12/26 02:45:17;;;;;;;4.45;3.67;;;;;;;-3.44;66.07;100732.28;4967475;28;20058;-69
2021/12/26 02:47:46;;;;;;;5.25;2.55;;;;;;;-3.46;65.96;100730.44;4944446;28;20534;-68
2021/12/26 02:50:23;;;;;;;3.83;2.53;;;;;;;-3.45;66.86;100724.53;4944118;28;20030;-69
2021/12/26 02:52:50;;;;;;;4.00;2.47;;;;;;;-3.47;66.95;100728.72;4944619;28;20126;-68
2021/12/26 02:55:19;;;;;;;5.57;2.28;;;;;;;-3.47;66.54;100727.03;4932474;28;20038;-68
2021/12/26 02:57:50;;;;;;;4.45;2.55;;;;;;;-3.47;67.20;100721.91;4942882;28;20125;-69
2021/12/26 03:00:17;;;;;;;;;;;;;;;-3.44;67.68;100718.59;4948474;28;20436;-68
2021/12/26 03:02:45;;;;;;;3.20;2.63;;;;;;;-3.46;67.47;100722.75;4960947;28;20224;-69
2021/12/26 03:05:13;;;;;;;3.67;2.20;;;;;;;-3.47;67.09;100733.84;4947043;28;20038;-68
2021/12/26 03:07:39;;;;;;;4.22;2.75;;;;;;;-3.49;66.68;100726.09;4929105;28;20035;-68
2021/12/26 03:10:10;;;;;;;6.43;2.15;;;;;;;-3.51;66.62;100731.13;4964400;28;20145;-68
2021/12/26 03:12:40;;;;;;;7.60;3.40;;;;;;;-3.50;66.39;100732.03;4946129;28;20034;-68
2021/12/26 03:15:10;;;;;;;3.88;2.60;;;;;;;-3.52;65.90;100718.25;4934244;28;20584;-69
2021/12/26 03:17:36;;;;;;;5.00;2.65;;;;;;;-3.54;66.46;100715.63;4918687;28;20035;-69
2021/12/26 03:20:08;;;;;;;8.95;2.92;;;;;;;-3.55;67.01;100726.72;4952485;28;20035;-69
2021/12/26 03:22:34;;;;;;;5.13;2.58;;;;;;;-3.53;67.14;100725.06;4942042;28;20019;-70
2021/12/26 03:24:59;;;;;;;4.78;2.35;;;;;;;-3.52;66.61;100721.72;4936224;28;20507;-69
2021/12/26 03:27:25;;;;;;;6.35;3.40;;;;;;;-3.52;66.59;100729.41;4916242;28;20041;-69
2021/12/26 03:29:50;;;;;;;6.47;3.30;;;;;;;-3.55;66.45;100723.25;4951284;28;20030;-69
2021/12/26 03:32:16;;;;;;;7.30;2.95;;;;;;;-3.52;66.19;100723.38;4934038;28;20045;-69
2021/12/26 03:34:46;;;;;;;3.15;2.33;;;;;;;-3.56;66.78;100716.38;4931403;28;20023;-69
2021/12/26 03:37:12;;;;;;;4.20;2.95;;;;;;;-3.52;66.68;100715.69;4946754;28;20101;-69
2021/12/26 03:39:37;;;;;;;6.05;3.35;;;;;;;-3.57;67.60;100701.81;4932749;28;20126;-69
2021/12/26 03:42:03;;;;;;;5.18;2.45;;;;;;;-3.58;66.73;100707.75;4921321;28;20417;-68
2021/12/26 03:44:28;;;;;;;3.35;2.58;;;;;;;-3.57;67.25;100704.38;4923708;28;20043;-69
2021/12/26 03:46:54;;;;;;;3.97;2.83;;;;;;;-3.59;67.41;100700.88;4968113;28;20058;-69
2021/12/26 03:49:19;;;;;;;6.70;3.30;;;;;;;-3.60;67.92;100702.56;4942478;28;20030;-69
2021/12/26 03:51:45;;;;;;;6.20;3.15;;;;;;;-3.60;67.77;100699.13;4953373;28;20738;-69
2021/12/26 03:54:12;;;;;;;4.57;2.42;;;;;;;-3.61;67.63;100705.94;4950510;28;20533;-69
2021/12/26 03:56:38;;;;;;;7.00;3.00;;;;;;;-3.56;67.27;100699.34;4953730;28;20022;-68
2021/12/26 03:59:06;;;;;;;4.00;2.75;;;;;;;-3.62;67.11;100701.63;4944913;28;20041;-68
2021/12/26 04:01:32;;;;;;;3.85;2.55;;;;;;;-3.64;67.24;100708.34;4935329;28;20042;-68
2021/12/26 04:03:58;;;;;;;3.90;2.78;;;;;;;-3.67;67.34;100698.00;4993329;28;20113;-68
2021/12/26 04:06:24;;;;;;;3.80;2.72;;;;;;;-3.72;67.56;100702.91;4954398;28;20037;-68
2021/12/26 04:08:50;;;;;;;7.57;3.00;;;;;;;-3.65;66.87;100706.59;4967453;28;20026;-69
2021/12/26 04:11:15;;;;;;;5.47;2.90;;;;;;;-3.73;67.62;100695.16;4954208;28;20097;-68
2021/12/26 04:13:43;;;;;;;5.82;4.03;;;;;;;-3.80;67.80;100685.47;4951102;28;20027;-68
2021/12/26 04:16:09;;;;;;;4.55;2.72;;;;;;;-3.83;67.71;100701.56;4955422;28;20169;-68
2021/12/26 04:18:36;;;;;;;6.28;3.42;;;;;;;-3.87;68.80;100689.44;4947934;28;20030;-68
2021/12/26 04:21:02;;;;;;;8.93;2.80;;;;;;;-3.91;68.21;100690.97;4952088;28;20031;-68
2021/12/26 04:23:28;;;;;;;7.03;3.13;;;;;;;-3.94;67.93;100685.72;4950151;28;20478;-68
2021/12/26 04:25:53;;;;;;;7.95;3.35;;;;;;;-3.98;68.34;100688.94;4953040;28;20069;-71
2021/12/26 04:28:19;;;;;;;5.00;2.95;;;;;;;-4.03;68.71;100687.88;4958614;28;20184;-71
2021/12/26 04:30:45;;;;;;;5.85;2.70;;;;;;;-4.07;69.27;100681.72;4952046;28;20374;-70
2021/12/26 04:33:11;;;;;;;4.88;3.30;;;;;;;-4.10;68.81;100681.59;4951287;28;20049;-71
2021/12/26 04:35:37;;;;;;;3.45;2.75;;;;;;;-4.06;68.42;100682.63;4970287;28;20034;-71
2021/12/26 04:38:05;;;;;;;6.90;3.15;;;;;;;-4.12;68.72;100683.22;4969623;28;20034;-71
2021/12/26 04:40:30;;;;;;;5.30;2.90;;;;;;;-4.16;69.75;100683.03;4945626;28;20189;-71
2021/12/26 04:42:56;;;;;;;5.22;3.25;;;;;;;-4.21;69.59;100681.13;4956733;28;20180;-71
2021/12/26 04:45:25;;;;;;;4.35;1.85;;;;;;;-4.23;69.68;100685.28;4949084;28;20393;-71
2021/12/26 04:47:51;;;;;;;6.50;3.47;;;;;;;-4.25;70.16;100681.78;4948446;28;20137;-71
2021/12/26 04:50:22;;;;;;;4.25;2.92;;;;;;;-4.24;70.27;100680.09;4970172;28;20093;-71
2021/12/26 04:52:49;;;;;;;7.47;2.58;;;;;;;-4.28;69.43;100679.09;4959736;28;20121;-71
2021/12/26 04:55:18;;;;;;;5.10;2.55;;;;;;;-4.29;70.13;100679.03;4936629;28;20482;-72
2021/12/26 04:57:44;;;;;;;9.23;3.13;;;;;;;-4.31;69.88;100675.50;4971419;28;20030;-71
2021/12/26 05:00:14;;;;;;;5.15;3.45;;;;;;;-4.32;70.16;100677.19;4963715;28;20045;-71
2021/12/26 05:02:40;;;;;;;4.43;3.13;;;;;;;-4.33;70.04;100672.88;4967582;28;20109;-71
2021/12/26 05:05:08;;;;;;;6.65;2.80;;;;;;;-4.36;69.80;100667.63;4973906;28;20092;-71
2021/12/26 05:07:34;;;;;;;3.92;3.03;;;;;;;-4.33;70.46;100666.91;4963429;28;20547;-72
2021/12/26 05:10:00;;;;;;;3.00;2.70;;;;;;;-4.41;71.22;100669.97;4965355;28;20041;-71
2021/12/26 05:12:26;;;;;;;4.40;2.88;;;;;;;-4.42;71.14;100668.22;4964851;28;20038;-72
2021/12/26 05:14:52;;;;;;;7.72;3.10;;;;;;;-4.43;70.52;100673.28;4978184;28;20030;-72
2021/12/26 05:17:18;;;;;;;5.53;2.85;;;;;;;-4.46;70.48;100665.47;4971801;28;20042;-71
2021/12/26 05:19:43;;;;;;;6.95;3.03;;;;;;;-4.44;70.99;100668.94;4967223;28;20019;-71
2021/12/26 05:22:09;;;;;;;5.03;3.55;;;;;;;-4.49;71.10;100660.22;4968883;28;20117;-72
2021/12/26 05:24:34;;;;;;;5.05;3.22;;;;;;;-4.49;72.34;100662.75;4971621;28;20038;-71
2021/12/26 05:27:00;;;;;;;3.33;2.88;;;;;;;-4.54;71.55;100660.88;4963961;28;20398;-71
2021/12/26 05:29:26;;;;;;;3.20;2.72;;;;;;;-4.56;71.43;100659.91;4944664;28;20042;-71
2021/12/26 05:31:53;;;;;;;5.93;3.28;;;;;;;-4.56;71.43;100652.22;4953472;28;20026;-71
2021/12/26 05:34:19;;;;;;;5.57;2.30;;;;;;;-4.55;71.72;100664.22;4970200;28;20039;-71
2021/12/26 05:36:47;;;;;;;6.82;3.35;;;;;;;-4.58;71.85;100668.34;4942791;28;20058;-71
2021/12/26 05:39:13;;;;;;;3.78;2.35;;;;;;;-4.61;71.58;100660.50;4948700;28;20031;-71
2021/12/26 05:41:43;;;;;;;6.68;2.75;;;;;;;-4.61;71.38;100663.94;4950886;28;20129;-71
2021/12/26 05:44:09;;;;;;;6.43;4.60;;;;;;;-4.61;71.30;100656.28;4948045;28;20034;-71
2021/12/26 05:46:37;;;;;;;6.28;2.90;;;;;;;-4.62;71.49;100646.84;4949958;28;20052;-71
2021/12/26 05:49:03;;;;;;;7.07;3.83;;;;;;;-4.64;71.16;100650.13;4972956;28;20066;-71
2021/12/26 05:51:28;;;;;;;5.43;3.30;;;;;;;-4.66;71.50;100649.19;4967579;28;20034;-71
2021/12/26 05:53:54;;;;;;;5.80;2.97;;;;;;;-4.66;71.40;100642.38;4963404;28;20027;-71
2021/12/26 05:56:19;;;;;;;9.88;3.63;;;;;;;-4.67;72.11;100638.06;4954930;28;20026;-71
2021/12/26 05:58:45;;;;;;;4.68;3.17;;;;;;;-4.71;72.39;100643.88;4951112;28;20036;-71
2021/12/26 06:01:11;;;;;;;5.07;3.17;;;;;;;-4.68;71.34;100632.88;4964590;28;20397;-71
2021/12/26 06:03:36;;;;;;;6.57;3.95;;;;;;;-4.69;71.96;100629.47;4966225;28;20088;-71
2021/12/26 06:06:03;;;;;;;6.28;3.13;;;;;;;-4.67;71.01;100630.41;4949764;28;20066;-71
2021/12/26 06:08:28;;;;;;;10.02;3.40;;;;;;;-4.72;71.21;100640.41;4968132;28;20365;-71
2021/12/26 06:10:54;;;;;;;6.07;3.22;;;;;;;-4.75;72.10;100647.94;4969092;28;20032;-72
2021/12/26 06:13:19;;;;;;;4.95;2.83;;;;;;;-4.75;71.79;100642.84;4951597;28;20046;-71
2021/12/26 06:15:46;;;;;;;5.57;3.13;;;;;;;-4.76;72.00;100651.31;4952271;28;20026;-71
2021/12/26 06:18:11;;;;;;;5.70;3.08;;;;;;;-4.73;71.61;100653.13;4953425;28;20065;-70
2021/12/26 06:20:37;;;;;;;5.10;3.10;;;;;;;-4.76;71.55;100640.22;4959692;28;20034;-70
2021/12/26 06:23:04;;;;;;;4.43;2.47;;;;;;;-4.78;71.20;100642.69;4949857;28;20041;-68
2021/12/26 06:25:30;;;;;;;5.00;2.95;;;;;;;-4.78;71.82;100641.84;4940645;28;20033;-70
2021/12/26 06:27:56;;;;;;;6.65;3.05;;;;;;;-4.78;71.58;100631.59;4965555;28;20034;-71
2021/12/26 06:30:24;;;;;;;4.22;3.13;;;;;;;-4.79;71.77;100637.50;4969396;28;20026;-70
2021/12/26 06:32:49;;;;;;;4.57;2.58;;;;;;;-4.81;72.09;100639.09;4971714;28;20355;-70
2021/12/26 06:35:15;;;;;;;6.07;2.92;;;;;;;-4.84;71.91;100631.28;4956676;28;20118;-71
2021/12/26 06:37:41;;;;;;;5.75;3.17;;;;;;;-4.83;72.18;100641.59;4953376;28;20026;-71
2021/12/26 06:40:09;;;;;;;5.85;3.80;;;;;;;-4.79;72.23;100640.06;4988798;28;20030;-71
2021/12/26 06:42:40;;;;;;;4.38;3.60;;;;;;;-4.82;71.86;100640.78;4963583;28;20062;-71
2021/12/26 06:45:08;;;;;;;4.95;3.55;;;;;;;-4.82;71.43;100642.50;4968158;28;20030;-72
2021/12/26 06:47:35;;;;;;;6.88;3.75;;;;;;;-4.85;72.79;100638.09;4973339;28;20073;-71
2021/12/26 06:50:03;;;;;;;4.10;3.05;;;;;;;-4.83;72.31;100641.59;4981641;28;20133;-69
2021/12/26 06:52:29;;;;;;;4.57;3.10;;;;;;;-4.84;71.77;100631.28;4967127;28;20043;-69
2021/12/26 06:54:54;;;;;;;4.93;3.13;;;;;;;-4.84;72.72;100642.41;4971523;28;20081;-69
2021/12/26 06:57:20;;;;;;;7.28;3.55;;;;;;;-4.78;71.99;100631.59;4973078;28;20487;-69
2021/12/26 06:59:45;;;;;;;5.28;3.17;;;;;;;-4.74;71.96;100638.59;4969382;28;20145;-69
2021/12/26 07:02:11;;;;;;;5.03;3.95;;;;;;;-4.78;72.95;100636.72;4932687;28;20053;-69
2021/12/26 07:04:36;;;;;;;4.57;3.17;;;;;;;-4.72;71.92;100637.00;4958997;28;20033;-69
2021/12/26 07:07:02;;;;;;;5.03;2.70;;;;;;;-4.74;72.26;100624.16;4934868;28;20042;-69
2021/12/26 07:09:30;;;;;;;9.15;4.43;;;;;;;-4.75;73.06;100624.94;4947863;28;20030;-69
2021/12/26 07:11:55;;;;;;;7.30;3.38;;;;;;;-4.72;72.11;100639.56;4947772;28;20039;-68
2021/12/26 07:14:21;;;;;;;6.20;3.00;;;;;;;-4.68;72.26;100631.22;4939583;28;20042;-68
2021/12/26 07:16:46;;;;;;;4.57;2.88;;;;;;;-4.72;72.48;100621.66;4968674;28;20022;-68
2021/12/26 07:19:12;;;;;;;5.03;3.40;;;;;;;-4.73;73.24;100630.97;4952223;28;20085;-69
2021/12/26 07:21:37;;;;;;;3.60;2.67;;;;;;;-4.71;72.85;100633.66;4936183;28;20164;-69
2021/12/26 07:24:04;;;;;;;6.28;3.20;;;;;;;-4.70;72.85;100630.25;4962493;28;20105;-67
2021/12/26 07:26:29;;;;;;;9.02;3.42;;;;;;;-4.65;72.65;100628.81;4942554;28;20133;-68
2021/12/26 07:28:55;;;;;;;8.63;3.95;;;;;;;-4.64;72.72;100622.00;4942095;28;20136;-68
2021/12/26 07:31:21;;;;;;;7.97;4.78;;;;;;;-4.64;73.02;100625.44;4964885;28;20308;-68
2021/12/26 07:33:46;;;;;;;7.13;4.47;;;;;;;-4.63;73.87;100624.63;4947446;28;20038;-69
2021/12/26 07:36:12;;;;;;;6.30;4.28;;;;;;;-4.60;73.24;100631.56;4938568;28;20034;-68
2021/12/26 07:38:37;;;;;;;5.05;3.10;;;;;;;-4.59;74.28;100620.53;4937563;28;20065;-68
2021/12/26 07:41:03;;;;;;;7.80;3.40;;;;;;;-4.57;73.25;100632.59;4972066;28;20057;-69
2021/12/26 07:43:29;;;;;;;8.13;3.03;;;;;;;-4.55;73.75;100630.97;4967685;28;20057;-69
2021/12/26 07:45:54;;;;;;;6.63;3.70;;;;;;;-4.53;73.49;100626.78;4942808;28;20086;-68
2021/12/26 07:48:20;;;;;;;6.55;3.35;;;;;;;-4.48;73.10;100639.81;4928762;28;20097;-68
2021/12/26 07:50:45;;;;;;;7.40;3.70;;;;;;;-4.45;73.12;100639.06;4931228;28;20122;-68
2021/12/26 07:53:12;;;;;;;4.80;2.95;;;;;;;-4.45;73.21;100623.72;4946029;28;20046;-67
2021/12/26 07:55:39;;;;;;;5.95;3.53;;;;;;;-4.43;73.58;100630.66;4934225;28;20062;-68
2021/12/26 07:58:05;;;;;;;11.55;5.30;;;;;;;-4.42;73.15;100624.72;4925255;28;20035;-68
2021/12/26 08:00:31;;;;;;;11.35;3.80;;;;;;;-4.37;73.20;100630.94;4946568;28;20075;-69
2021/12/26 08:02:57;;;;;;;4.78;3.30;;;;;;;-4.35;72.89;100625.91;4930518;28;20048;-68
2021/12/26 08:05:23;;;;;;;10.65;3.35;;;;;;;-4.30;72.18;100619.28;4932847;28;20034;-68
2021/12/26 08:07:49;;;;;;;6.72;3.10;;;;;;;-4.29;73.51;100628.72;4943036;28;20077;-68
2021/12/26 08:10:15;;;;;;;4.78;3.33;;;;;;;-4.28;73.91;100630.47;4949004;28;20495;-69
2021/12/26 08:12:40;;;;;;;6.57;3.38;;;;;;;-4.22;72.90;100635.00;4940462;28;20030;-69
2021/12/26 08:15:06;;;;;;;5.78;4.13;;;;;;;-4.19;73.47;100642.81;4934450;28;20038;-68
2021/12/26 08:17:32;;;;;;;6.80;3.35;;;;;;;-4.13;73.26;100642.22;4932654;28;20090;-69
2021/12/26 08:19:58;;;;;;;6.55;3.40;;;;;;;-4.10;73.18;100650.88;4930140;28;20034;-69
2021/12/26 08:22:24;;;;;;;4.88;3.67;;;;;;;-4.06;72.77;100639.13;4933586;28;20185;-68
2021/12/26 08:24:50;;;;;;;7.55;5.18;;;;;;;-4.00;73.91;100639.38;4935281;28;20443;-69
2021/12/26 08:27:15;;;;;;;6.65;3.70;;;;;;;-3.96;73.17;100650.63;4937891;28;20226;-68
2021/12/26 08:29:41;;;;;;;5.18;3.35;;;;;;;-3.92;72.71;100647.38;4916029;28;20061;-70
2021/12/26 08:32:12;;;;;;;6.22;3.25;;;;;;;-3.87;73.14;100648.47;4927204;28;20045;-69
2021/12/26 08:34:37;;;;;;;7.32;2.92;;;;;;;-3.76;73.73;100648.94;4939583;28;20410;-69
2021/12/26 08:37:04;;;;;;;6.10;4.07;;;;;;;-3.73;73.26;100649.06;4929323;28;20031;-69
2021/12/26 08:39:32;;;;;;;4.70;3.53;;;;;;;-3.71;72.67;100643.19;4932874;28;20023;-68
2021/12/26 08:41:59;;;;;;;4.82;3.75;;;;;;;-3.63;72.30;100640.97;4953956;28;20045;-68
2021/12/26 08:44:24;;;;;;;5.40;3.80;;;;;;;-3.58;72.77;100642.03;4946548;28;20113;-69
2021/12/26 08:46:51;;;;;;;7.35;3.33;;;;;;;-3.53;72.47;100632.00;4948603;28;20050;-71
2021/12/26 08:49:18;;;;;;;7.82;4.20;;;;;;;-3.49;72.04;100637.28;4944048;28;20045;-72
2021/12/26 08:51:44;;;;;;;5.28;4.00;;;;;;;-3.41;72.88;100626.50;4943554;28;20030;-72
2021/12/26 08:54:10;;;;;;;10.65;4.53;;;;;;;-3.39;73.45;100645.34;4942890;28;20590;-71
2021/12/26 08:56:36;;;;;;;8.52;4.70;;;;;;;-3.34;73.10;100643.88;4945388;28;20117;-71
2021/12/26 08:59:02;;;;;;;11.65;6.25;;;;;;;-3.29;72.13;100650.03;4945678;28;20468;-71
2021/12/26 09:01:27;;;;;;;9.63;5.13;;;;;;;-3.21;73.08;100658.94;4945863;28;20046;-71
2021/12/26 09:03:53;;;;;;;10.73;4.75;;;;;;;-3.15;72.41;100654.06;4915891;28;20592;-71
2021/12/26 09:06:18;;;;;;;11.48;4.88;;;;;;;-3.09;72.12;100650.84;4951931;28;20111;-71
2021/12/26 09:08:44;;;;;;;7.57;4.47;;;;;;;-3.04;71.48;100645.94;4947356;28;20476;-71
2021/12/26 09:11:10;;;;;;;11.30;5.40;;;;;;;-3.04;72.80;100641.69;4907869;28;20093;-71
2021/12/26 09:13:36;;;;;;;11.63;4.85;;;;;;;-2.97;71.41;100640.25;4923465;28;20065;-72
2021/12/26 09:16:02;;;;;;;11.27;5.05;;;;;;;-2.95;71.17;100641.16;4920849;28;20077;-71
2021/12/26 09:18:28;;;;;;;7.05;5.38;;;;;;;-2.89;71.05;100635.41;4929709;28;20051;-72
2021/12/26 09:20:53;;;;;;;5.75;3.67;;;;;;;-2.86;71.45;100630.38;4946976;28;20046;-72
2021/12/26 09:23:19;;;;;;;7.07;4.47;;;;;;;-2.82;71.57;100629.69;4925212;28;20038;-71
2021/12/26 09:25:44;;;;;;;6.60;4.85;;;;;;;-2.74;71.38;100637.69;4942525;28;20062;-71
2021/12/26 09:28:10;;;;;;;13.02;4.55;;;;;;;-2.67;71.14;100637.09;4950098;28;20399;-71
2021/12/26 09:30:37;;;;;;;10.90;5.75;;;;;;;-2.58;72.01;100641.75;4920131;28;20042;-71
2021/12/26 09:33:03;;;;;;;6.45;3.70;;;;;;;-2.54;71.78;100638.44;4946834;29;20133;-71
2021/12/26 09:35:32;;;;;;;6.90;4.20;;;;;;;-2.54;71.21;100629.09;4933917;28;20158;-72
2021/12/26 09:37:57;;;;;;;9.38;4.82;;;;;;;-2.53;71.32;100630.84;4946204;28;20443;-71
2021/12/26 09:40:23;;;;;;;6.15;3.97;;;;;;;-2.53;70.67;100628.28;4949412;28;20038;-71
2021/12/26 09:42:49;;;;;;;12.13;4.82;;;;;;;-2.55;71.41;100637.59;4920125;28;20428;-71
2021/12/26 09:45:18;;;;;;;9.27;4.53;;;;;;;-2.52;71.31;100629.13;4950040;28;20129;-71
2021/12/26 09:47:49;;;;;;;6.60;4.22;;;;;;;-2.48;71.04;100616.47;4940312;28;20476;-72
2021/12/26 09:50:17;;;;;;;8.48;3.95;;;;;;;-2.44;71.45;100628.59;4943265;28;20034;-71
2021/12/26 09:52:45;;;;;;;8.02;4.72;;;;;;;-2.38;71.88;100634.78;4947926;28;20101;-71
2021/12/26 09:55:12;;;;;;;10.23;4.72;;;;;;;-2.31;71.95;100636.78;4955007;28;20522;-71
2021/12/26 09:57:38;;;;;;;8.05;5.25;;;;;;;-2.25;71.12;100637.00;4951629;28;20046;-71
2021/12/26 10:00:20;;;;;;;8.00;4.75;;;;;;;-2.20;71.82;100635.44;4918859;28;20039;-72
2021/12/26 10:02:46;;;;;;;10.38;5.60;;;;;;;-2.17;71.51;100627.88;4949667;28;20035;-71
2021/12/26 10:05:12;;;;;;;8.38;4.70;;;;;;;-2.14;71.31;100625.44;4947952;28;20058;-72
2021/12/26 10:07:40;;;;;;;7.53;4.70;;;;;;;-2.10;71.59;100622.16;4950050;28;20466;-72
2021/12/26 10:10:07;;;;;;;8.50;5.20;;;;;;;-2.09;70.54;100620.44;4966656;28;20126;-72
2021/12/26 10:12:41;;;;;;;10.48;6.50;;;;;;;-2.09;70.38;100607.63;4935446;28;20027;-71
2021/12/26 10:15:07;;;;;;;5.88;4.53;;;;;;;-2.04;70.71;100607.78;4949365;28;20043;-72
2021/12/26 10:17:33;;;;;;;8.07;4.63;;;;;;;-2.01;70.46;100606.19;4952390;28;20471;-72
2021/12/26 10:20:08;;;;;;;6.32;4.78;;;;;;;-1.96;71.41;100608.91;4948453;28;20072;-71
2021/12/26 10:22:34;;;;;;;11.40;5.30;;;;;;;-1.90;71.01;100598.84;4962476;28;20027;-71
2021/12/26 10:25:08;;;;;;;6.25;4.70;;;;;;;-1.88;71.48;100597.22;4943508;28;20405;-72
2021/12/26 10:27:34;;;;;;;9.55;5.30;;;;;;;-1.85;71.11;100599.91;4951384;28;20034;-72
2021/12/26 10:30:04;;;;;;;10.85;4.90;;;;;;;-1.80;71.90;100595.78;4953659;28;20485;-72
2021/12/26 10:32:34;;;;;;;7.95;5.47;;;;;;;-1.76;71.51;100592.50;4939853;28;20027;-72
2021/12/26 10:35:13;;;;;;;14.95;6.25;;;;;;;-1.71;71.78;100590.13;4950630;28;20420;-72
2021/12/26 10:37:42;;;;;;;4.93;3.85;;;;;;;-1.69;71.83;100585.03;4940404;28;20144;-71
2021/12/26 10:40:22;;;;;;;9.40;4.93;;;;;;;-1.66;71.37;100574.84;4954210;28;20141;-71
2021/12/26 10:42:53;;;;;;;9.55;4.60;;;;;;;-1.63;71.34;100572.38;4944776;28;20089;-72
2021/12/26 10:45:23;;;;;;;4.40;3.63;;;;;;;-1.59;71.14;100564.81;4946660;28;20039;-71
2021/12/26 10:47:55;;;;;;;11.30;6.78;;;;;;;-1.55;71.18;100570.94;4948520;28;20058;-72
2021/12/26 10:50:23;;;;;;;10.35;5.68;;;;;;;-1.58;72.04;100568.25;4960225;28;20096;-71
2021/12/26 10:52:57;;;;;;;10.18;5.50;;;;;;;-1.58;71.11;100563.09;4947558;28;20022;-71
2021/12/26 10:55:29;;;;;;;12.70;4.47;;;;;;;-1.53;72.17;100569.28;4946135;28;20193;-71
2021/12/26 10:57:55;;;;;;;7.40;4.93;;;;;;;-1.52;71.33;100559.88;4941630;28;20042;-71
2021/12/26 11:00:23;;;;;;;11.77;5.15;;;;;;;-1.51;71.63;100562.47;4942075;28;20026;-71
2021/12/26 11:02:52;;;;;;;8.32;6.53;;;;;;;-1.51;72.27;100565.06;4944367;28;20376;-71
2021/12/26 11:05:24;;;;;;;10.15;6.13;;;;;;;-1.45;71.28;100564.38;4946652;28;20121;-70
2021/12/26 11:07:59;;;;;;;12.20;5.63;;;;;;;-1.45;72.08;100561.81;4948150;28;20177;-71
2021/12/26 11:10:42;;;;;;;10.18;5.93;;;;;;;-1.41;71.75;100561.09;4922774;28;20032;-71
2021/12/26 11:13:20;;;;;;;7.00;4.88;;;;;;;-1.37;71.74;100559.50;4944229;28;20535;-71
2021/12/26 11:15:46;;;;;;;10.48;6.60;;;;;;;-1.37;71.34;100557.81;4948800;28;20061;-71
2021/12/26 11:18:14;;;;;;;8.95;6.35;;;;;;;-1.34;72.05;100549.31;4945143;28;20039;-71
2021/12/26 11:20:46;;;;;;;7.95;5.22;;;;;;;-1.30;71.90;100546.03;4946021;28;20110;-71
2021/12/26 11:23:18;;;;;;;9.93;5.47;;;;;;;-1.27;71.21;100541.84;4941047;28;20082;-71
2021/12/26 11:25:47;;;;;;;7.72;5.05;;;;;;;-1.25;71.66;100544.44;4946848;28;20054;-71
2021/12/26 11:28:16;;;;;;;7.47;4.72;;;;;;;-1.27;72.01;100546.97;4948113;28;20113;-71